sensor_id;sensor_type;location;lat;lon;timestamp;pressure;altitude;pressure_sealevel;temperature;humidity
16120;BME280;12670;53.502;10.252;2024-03-02T00:01:45;100127.38;;;10.36;100.00
16120;BME280;12670;53.502;10.252;2024-03-02T00:04:48;100119.38;;;10.38;100.00
16120;BME280;12670;53.502;10.252;2024-03-02T00:07:56;100123.13;;;10.34;100.00
16120;BME280;12670;53.502;10.252;2024-03-02T00:11:00;100120.88;;;10.44;100.00
16120;BME280;12670;53.502;10.252;2024-03-02T00:14:04;100118.03;;;10.47;100.00
16120;BME280;12670;53.502;10.252;2024-03-02T00:17:13;100114.75;;;10.41;100.00
16120;BME280;12670;53.502;10.252;2024-03-02T00:20:22;100112.91;;;10.44;100.00
16120;BME280;12670;53.502;10.252;2024-03-02T00:23:30;100107.44;;;10.47;100.00
16120;BME280;12670;53.502;10.252;2024-03-02T00:26:33;100107.59;;;10.44;100.00
16120;BME280;12670;53.502;10.252;2024-03-02T00:29:35;100108.59;;;10.41;100.00
16120;BME280;12670;53.502;10.252;2024-03-02T00:32:38;100097.84;;;10.44;100.00
16120;BME280;12670;53.502;10.252;2024-03-02T00:35:44;100096.28;;;10.40;100.00
16120;BME280;12670;53.502;10.252;2024-03-02T00:38:49;100094.56;;;10.39;100.00
16120;BME280;12670;53.502;10.252;2024-03-02T00:41:52;100094.63;;;10.37;100.00
16120;BME280;12670;53.502;10.252;2024-03-02T00:44:55;100095.13;;;10.28;100.00
16120;BME280;12670;53.502;10.252;2024-03-02T00:47:58;100085.28;;;10.30;100.00
16120;BME280;12670;53.502;10.252;2024-03-02T00:51:02;100096.19;;;10.24;100.00
16120;BME280;12670;53.502;10.252;2024-03-02T00:54:07;100089.97;;;10.25;100.00
16120;BME280;12670;53.502;10.252;2024-03-02T00:57:11;100094.94;;;10.31;100.00
16120;BME280;12670;53.502;10.252;2024-03-02T01:00:15;100091.34;;;10.15;100.00
16120;BME280;12670;53.502;10.252;2024-03-02T01:03:19;100096.97;;;10.09;100.00
16120;BME280;12670;53.502;10.252;2024-03-02T01:06:23;100091.78;;;10.06;100.00
16120;BME280;12670;53.502;10.252;2024-03-02T01:09:27;100090.72;;;10.10;100.00
16120;BME280;12670;53.502;10.252;2024-03-02T01:12:30;100098.81;;;10.07;100.00
16120;BME280;12670;53.502;10.252;2024-03-02T01:15:33;100097.41;;;10.00;100.00
16120;BME280;12670;53.502;10.252;2024-03-02T01:18:36;100090.84;;;9.89;100.00
16120;BME280;12670;53.502;10.252;2024-03-02T01:21:38;100082.56;;;9.78;100.00
16120;BME280;12670;53.502;10.252;2024-03-02T01:24:43;100088.22;;;10.07;100.00
16120;BME280;12670;53.502;10.252;2024-03-02T01:27:46;100086.59;;;10.04;100.00
16120;BME280;12670;53.502;10.252;2024-03-02T01:30:51;100083.94;;;10.04;100.00
16120;BME280;12670;53.502;10.252;2024-03-02T01:33:53;100081.97;;;10.08;100.00
16120;BME280;12670;53.502;10.252;2024-03-02T01:36:56;100075.91;;;10.06;100.00
16120;BME280;12670;53.502;10.252;2024-03-02T01:40:00;100076.38;;;9.97;100.00
16120;BME280;12670;53.502;10.252;2024-03-02T01:43:04;100082.56;;;9.96;100.00
16120;BME280;12670;53.502;10.252;2024-03-02T01:46:06;100079.06;;;9.95;100.00
16120;BME280;12670;53.502;10.252;2024-03-02T01:49:10;100077.22;;;9.97;100.00
16120;BME280;12670;53.502;10.252;2024-03-02T01:52:13;100081.25;;;9.87;100.00
16120;BME280;12670;53.502;10.252;2024-03-02T01:55:17;100077.66;;;9.88;100.00
16120;BME280;12670;53.502;10.252;2024-03-02T01:58:19;100076.50;;;9.94;100.00
16120;BME280;12670;53.502;10.252;2024-03-02T02:01:22;100075.66;;;9.93;100.00
16120;BME280;12670;53.502;10.252;2024-03-02T02:04:25;100080.00;;;9.94;100.00
16120;BME280;12670;53.502;10.252;2024-03-02T02:07:29;100080.22;;;9.89;100.00
16120;BME280;12670;53.502;10.252;2024-03-02T02:10:33;100079.06;;;9.95;100.00
16120;BME280;12670;53.502;10.252;2024-03-02T02:13:36;100085.47;;;9.91;100.00
16120;BME280;12670;53.502;10.252;2024-03-02T02:16:38;100081.03;;;9.92;100.00
16120;BME280;12670;53.502;10.252;2024-03-02T02:19:41;100079.28;;;9.91;100.00
16120;BME280;12670;53.502;10.252;2024-03-02T02:22:57;100072.69;;;9.99;100.00
16120;BME280;12670;53.502;10.252;2024-03-02T02:26:00;100071.59;;;9.86;100.00
16120;BME280;12670;53.502;10.252;2024-03-02T02:29:04;100070.78;;;9.84;100.00
16120;BME280;12670;53.502;10.252;2024-03-02T02:32:07;100069.81;;;9.86;100.00
16120;BME280;12670;53.502;10.252;2024-03-02T02:35:09;100056.38;;;9.72;100.00
16120;BME280;12670;53.502;10.252;2024-03-02T02:38:13;100064.44;;;9.88;100.00
16120;BME280;12670;53.502;10.252;2024-03-02T02:41:16;100065.28;;;9.88;100.00
16120;BME280;12670;53.502;10.252;2024-03-02T02:44:19;100068.09;;;9.85;100.00
16120;BME280;12670;53.502;10.252;2024-03-02T02:47:21;100064.63;;;9.83;100.00
16120;BME280;12670;53.502;10.252;2024-03-02T02:50:24;100063.66;;;9.86;100.00
16120;BME280;12670;53.502;10.252;2024-03-02T02:53:28;100056.06;;;9.78;100.00
16120;BME280;12670;53.502;10.252;2024-03-02T02:56:31;100058.97;;;9.74;100.00
16120;BME280;12670;53.502;10.252;2024-03-02T02:59:35;100053.91;;;9.86;100.00
16120;BME280;12670;53.502;10.252;2024-03-02T03:02:38;100047.22;;;9.79;100.00
16120;BME280;12670;53.502;10.252;2024-03-02T03:05:43;100052.34;;;9.82;100.00
16120;BME280;12670;53.502;10.252;2024-03-02T03:08:47;100049.22;;;9.74;100.00
16120;BME280;12670;53.502;10.252;2024-03-02T03:11:49;100045.88;;;9.88;100.00
16120;BME280;12670;53.502;10.252;2024-03-02T03:14:52;100047.94;;;9.64;100.00
16120;BME280;12670;53.502;10.252;2024-03-02T03:17:55;100044.06;;;9.71;100.00
16120;BME280;12670;53.502;10.252;2024-03-02T03:20:58;100047.22;;;9.79;100.00
16120;BME280;12670;53.502;10.252;2024-03-02T03:24:02;100043.75;;;9.77;100.00
16120;BME280;12670;53.502;10.252;2024-03-02T03:27:05;100043.59;;;9.63;100.00
16120;BME280;12670;53.502;10.252;2024-03-02T03:30:09;100048.13;;;9.78;100.00
16120;BME280;12670;53.502;10.252;2024-03-02T03:33:12;100047.50;;;9.73;100.00
16120;BME280;12670;53.502;10.252;2024-03-02T03:36:15;100047.88;;;9.66;100.00
16120;BME280;12670;53.502;10.252;2024-03-02T03:39:19;100043.63;;;9.80;100.00
16120;BME280;12670;53.502;10.252;2024-03-02T03:42:21;100055.94;;;9.81;100.00
16120;BME280;12670;53.502;10.252;2024-03-02T03:45:24;100050.47;;;9.84;100.00
16120;BME280;12670;53.502;10.252;2024-03-02T03:48:28;100046.19;;;9.82;100.00
16120;BME280;12670;53.502;10.252;2024-03-02T03:51:32;100050.63;;;9.81;100.00
16120;BME280;12670;53.502;10.252;2024-03-02T03:54:36;100041.97;;;9.42;100.00
16120;BME280;12670;53.502;10.252;2024-03-02T03:57:40;100043.06;;;9.74;100.00
16120;BME280;12670;53.502;10.252;2024-03-02T04:00:44;100045.59;;;9.58;100.00
16120;BME280;12670;53.502;10.252;2024-03-02T04:03:46;100048.19;;;9.77;100.00
16120;BME280;12670;53.502;10.252;2024-03-02T04:06:49;100043.09;;;9.91;100.00
16120;BME280;12670;53.502;10.252;2024-03-02T04:09:54;100040.03;;;9.81;100.00
16120;BME280;12670;53.502;10.252;2024-03-02T04:12:56;100030.81;;;9.71;100.00
16120;BME280;12670;53.502;10.252;2024-03-02T04:15:59;100030.22;;;9.83;100.00
16120;BME280;12670;53.502;10.252;2024-03-02T04:19:02;100026.94;;;9.96;100.00
16120;BME280;12670;53.502;10.252;2024-03-02T04:26:20;100018.63;;;9.86;100.00
16120;BME280;12670;53.502;10.252;2024-03-02T04:29:23;100022.13;;;9.86;100.00
16120;BME280;12670;53.502;10.252;2024-03-02T04:32:26;100016.97;;;9.83;100.00
16120;BME280;12670;53.502;10.252;2024-03-02T04:35:29;100016.09;;;9.83;100.00
16120;BME280;12670;53.502;10.252;2024-03-02T04:38:31;100021.50;;;9.81;100.00
16120;BME280;12670;53.502;10.252;2024-03-02T04:41:35;100023.66;;;9.91;100.00
16120;BME280;12670;53.502;10.252;2024-03-02T04:44:38;100020.72;;;9.97;100.00
16120;BME280;12670;53.502;10.252;2024-03-02T04:47:41;100029.91;;;10.07;100.00
16120;BME280;12670;53.502;10.252;2024-03-02T04:50:43;100031.25;;;9.98;100.00
16120;BME280;12670;53.502;10.252;2024-03-02T04:53:46;100030.06;;;10.04;100.00
16120;BME280;12670;53.502;10.252;2024-03-02T04:56:50;100030.94;;;10.04;100.00
16120;BME280;12670;53.502;10.252;2024-03-02T04:59:52;100039.28;;;9.97;100.00
16120;BME280;12670;53.502;10.252;2024-03-02T05:02:55;100039.28;;;9.97;100.00
16120;BME280;12670;53.502;10.252;2024-03-02T05:05:58;100052.34;;;10.00;100.00
16120;BME280;12670;53.502;10.252;2024-03-02T05:09:01;100048.00;;;9.99;100.00
16120;BME280;12670;53.502;10.252;2024-03-02T05:12:05;100054.47;;;9.93;100.00
16120;BME280;12670;53.502;10.252;2024-03-02T05:15:36;100052.97;;;9.87;100.00
16120;BME280;12670;53.502;10.252;2024-03-02T05:18:39;100050.16;;;9.91;100.00
16120;BME280;12670;53.502;10.252;2024-03-02T05:21:42;100037.72;;;9.93;100.00
16120;BME280;12670;53.502;10.252;2024-03-02T05:24:45;100049.38;;;9.88;100.00
16120;BME280;12670;53.502;10.252;2024-03-02T05:27:49;100048.50;;;9.71;100.00
16120;BME280;12670;53.502;10.252;2024-03-02T05:30:52;100045.00;;;9.70;100.00
16120;BME280;12670;53.502;10.252;2024-03-02T05:33:54;100042.25;;;9.72;100.00
16120;BME280;12670;53.502;10.252;2024-03-02T05:36:58;100041.19;;;9.76;100.00
16120;BME280;12670;53.502;10.252;2024-03-02T05:40:01;100037.19;;;9.67;100.00
16120;BME280;12670;53.502;10.252;2024-03-02T05:43:06;100047.00;;;9.65;100.00
16120;BME280;12670;53.502;10.252;2024-03-02T05:46:09;100050.75;;;9.78;100.00
16120;BME280;12670;53.502;10.252;2024-03-02T05:49:11;100044.69;;;9.76;100.00
16120;BME280;12670;53.502;10.252;2024-03-02T05:52:14;100045.03;;;9.87;100.00
16120;BME280;12670;53.502;10.252;2024-03-02T05:55:17;100050.75;;;9.78;100.00
16120;BME280;12670;53.502;10.252;2024-03-02T05:58:21;100054.88;;;9.67;100.00
16120;BME280;12670;53.502;10.252;2024-03-02T06:01:35;100056.75;;;9.65;100.00
16120;BME280;12670;53.502;10.252;2024-03-02T06:04:37;100045.13;;;9.67;100.00
16120;BME280;12670;53.502;10.252;2024-03-02T06:07:40;100044.88;;;9.73;100.00
16120;BME280;12670;53.502;10.252;2024-03-02T06:10:43;100053.56;;;9.75;100.00
16120;BME280;12670;53.502;10.252;2024-03-02T06:13:47;100049.06;;;9.77;100.00
16120;BME280;12670;53.502;10.252;2024-03-02T06:16:50;100043.66;;;9.79;100.00
16120;BME280;12670;53.502;10.252;2024-03-02T06:19:52;100051.06;;;9.72;100.00
16120;BME280;12670;53.502;10.252;2024-03-02T06:22:55;100048.13;;;9.78;100.00
16120;BME280;12670;53.502;10.252;2024-03-02T06:25:58;100055.91;;;9.64;100.00
16120;BME280;12670;53.502;10.252;2024-03-02T06:29:02;100053.66;;;9.74;100.00
16120;BME280;12670;53.502;10.252;2024-03-02T06:32:05;100060.59;;;9.76;100.00
16120;BME280;12670;53.502;10.252;2024-03-02T06:35:08;100061.53;;;9.75;100.00
16120;BME280;12670;53.502;10.252;2024-03-02T06:38:11;100063.19;;;9.95;100.00
16120;BME280;12670;53.502;10.252;2024-03-02T06:41:14;100067.69;;;9.76;100.00
16120;BME280;12670;53.502;10.252;2024-03-02T06:44:18;100067.25;;;9.85;100.00
16120;BME280;12670;53.502;10.252;2024-03-02T06:47:21;100068.53;;;9.76;100.00
16120;BME280;12670;53.502;10.252;2024-03-02T06:50:23;100063.53;;;9.70;100.00
16120;BME280;12670;53.502;10.252;2024-03-02T06:53:26;100069.34;;;9.59;100.00
16120;BME280;12670;53.502;10.252;2024-03-02T06:56:29;100067.09;;;9.52;100.00
16120;BME280;12670;53.502;10.252;2024-03-02T06:59:35;100071.25;;;9.39;100.00
16120;BME280;12670;53.502;10.252;2024-03-02T07:02:38;100067.59;;;9.41;100.00
16120;BME280;12670;53.502;10.252;2024-03-02T07:05:42;100066.44;;;9.47;100.00
16120;BME280;12670;53.502;10.252;2024-03-02T07:08:45;100070.22;;;9.60;100.00
16120;BME280;12670;53.502;10.252;2024-03-02T07:11:48;100061.72;;;9.34;100.00
16120;BME280;12670;53.502;10.252;2024-03-02T07:14:54;100062.16;;;9.44;100.00
16120;BME280;12670;53.502;10.252;2024-03-02T07:18:12;100071.78;;;9.64;100.00
16120;BME280;12670;53.502;10.252;2024-03-02T07:21:15;100068.97;;;9.67;100.00
16120;BME280;12670;53.502;10.252;2024-03-02T07:24:18;100061.66;;;9.72;100.00
16120;BME280;12670;53.502;10.252;2024-03-02T07:27:21;100074.13;;;9.70;100.00
16120;BME280;12670;53.502;10.252;2024-03-02T07:30:25;100069.88;;;10.02;100.00
16120;BME280;12670;53.502;10.252;2024-03-02T07:33:28;100088.50;;;10.01;100.00
16120;BME280;12670;53.502;10.252;2024-03-02T07:36:31;100086.59;;;10.04;100.00
16120;BME280;12670;53.502;10.252;2024-03-02T07:39:34;100084.59;;;10.27;100.00
16120;BME280;12670;53.502;10.252;2024-03-02T07:42:37;100090.28;;;10.36;100.00
16120;BME280;12670;53.502;10.252;2024-03-02T07:45:42;100103.06;;;10.46;100.00
16120;BME280;12670;53.502;10.252;2024-03-02T07:48:45;100108.19;;;10.31;100.00
16120;BME280;12670;53.502;10.252;2024-03-02T07:51:49;100108.59;;;10.41;100.00
16120;BME280;12670;53.502;10.252;2024-03-02T07:54:52;100116.00;;;10.52;100.00
16120;BME280;12670;53.502;10.252;2024-03-02T07:57:55;100108.28;;;10.47;100.00
16120;BME280;12670;53.502;10.252;2024-03-02T08:01:00;100109.63;;;10.56;100.00
16120;BME280;12670;53.502;10.252;2024-03-02T08:04:03;100111.69;;;10.66;100.00
16120;BME280;12670;53.502;10.252;2024-03-02T08:07:06;100114.53;;;10.63;100.00
16120;BME280;12670;53.502;10.252;2024-03-02T08:10:10;100115.78;;;10.74;100.00
16120;BME280;12670;53.502;10.252;2024-03-02T08:13:13;100123.63;;;10.75;100.00
16120;BME280;12670;53.502;10.252;2024-03-02T08:16:18;100121.53;;;10.82;100.00
16120;BME280;12670;53.502;10.252;2024-03-02T08:19:21;100127.69;;;10.82;100.00
16120;BME280;12670;53.502;10.252;2024-03-02T08:22:24;100132.84;;;10.85;100.00
16120;BME280;12670;53.502;10.252;2024-03-02T08:25:27;100133.72;;;11.02;100.00
16120;BME280;12670;53.502;10.252;2024-03-02T08:28:30;100136.69;;;10.95;100.00
16120;BME280;12670;53.502;10.252;2024-03-02T08:31:34;100135.00;;;10.94;100.00
16120;BME280;12670;53.502;10.252;2024-03-02T08:34:39;100130.75;;;11.08;100.00
16120;BME280;12670;53.502;10.252;2024-03-02T08:37:42;100141.88;;;10.99;100.00
16120;BME280;12670;53.502;10.252;2024-03-02T08:40:45;100135.72;;;11.14;100.00
16120;BME280;12670;53.502;10.252;2024-03-02T08:43:47;100138.97;;;11.19;100.00
16120;BME280;12670;53.502;10.252;2024-03-02T08:46:52;100138.50;;;11.28;100.00
16120;BME280;12670;53.502;10.252;2024-03-02T08:49:54;100141.94;;;11.46;100.00
16120;BME280;12670;53.502;10.252;2024-03-02T08:53:03;100151.53;;;11.33;100.00
16120;BME280;12670;53.502;10.252;2024-03-02T08:56:06;100145.38;;;11.48;100.00
16120;BME280;12670;53.502;10.252;2024-03-02T08:59:08;100146.41;;;11.45;100.00
16120;BME280;12670;53.502;10.252;2024-03-02T09:02:12;100145.81;;;11.56;100.00
16120;BME280;12670;53.502;10.252;2024-03-02T09:05:15;100147.44;;;11.59;100.00
16120;BME280;12670;53.502;10.252;2024-03-02T09:08:18;100148.47;;;11.72;100.00
16120;BME280;12670;53.502;10.252;2024-03-02T09:11:21;100145.34;;;11.81;100.00
16120;BME280;12670;53.502;10.252;2024-03-02T09:14:26;100141.28;;;11.90;100.00
16120;BME280;12670;53.502;10.252;2024-03-02T09:17:31;100145.34;;;11.97;100.00
16120;BME280;12670;53.502;10.252;2024-03-02T09:20:33;100147.66;;;12.03;100.00
16120;BME280;12670;53.502;10.252;2024-03-02T09:23:36;100149.09;;;11.93;100.00
16120;BME280;12670;53.502;10.252;2024-03-02T09:26:39;100148.50;;;12.04;100.00
16120;BME280;12670;53.502;10.252;2024-03-02T09:29:42;100151.75;;;12.09;100.00
16120;BME280;12670;53.502;10.252;2024-03-02T09:32:46;100153.63;;;12.07;100.00
16120;BME280;12670;53.502;10.252;2024-03-02T09:35:51;100146.94;;;11.99;100.00
16120;BME280;12670;53.502;10.252;2024-03-02T09:38:55;100147.78;;;12.16;100.00
16120;BME280;12670;53.502;10.252;2024-03-02T09:41:59;100156.59;;;12.32;100.00
16120;BME280;12670;53.502;10.252;2024-03-02T09:45:01;100156.59;;;12.62;100.00
16120;BME280;12670;53.502;10.252;2024-03-02T09:48:07;100142.50;;;12.90;100.00
16120;BME280;12670;53.502;10.252;2024-03-02T09:51:10;100146.22;;;13.02;100.00
16120;BME280;12670;53.502;10.252;2024-03-02T09:54:13;100143.34;;;13.05;100.00
16120;BME280;12670;53.502;10.252;2024-03-02T09:57:23;100149.53;;;13.20;100.00
16120;BME280;12670;53.502;10.252;2024-03-02T10:00:26;100155.09;;;13.31;100.00
16120;BME280;12670;53.502;10.252;2024-03-02T10:03:30;100158.66;;;13.58;100.00
16120;BME280;12670;53.502;10.252;2024-03-02T10:06:34;100151.06;;;13.67;100.00
16120;BME280;12670;53.502;10.252;2024-03-02T10:09:37;100159.91;;;13.94;100.00
16120;BME280;12670;53.502;10.252;2024-03-02T10:12:40;100164.22;;;13.97;100.00
16120;BME280;12670;53.502;10.252;2024-03-02T10:15:43;100153.59;;;14.09;100.00
16120;BME280;12670;53.502;10.252;2024-03-02T10:18:47;100149.56;;;14.17;100.00
16120;BME280;12670;53.502;10.252;2024-03-02T10:21:51;100159.41;;;14.29;97.76
16120;BME280;12670;53.502;10.252;2024-03-02T10:24:54;100163.88;;;14.43;99.87
16120;BME280;12670;53.502;10.252;2024-03-02T10:28:00;100161.66;;;14.49;96.22
16120;BME280;12670;53.502;10.252;2024-03-02T10:31:03;100171.94;;;14.68;92.53
16120;BME280;12670;53.502;10.252;2024-03-02T10:34:10;100167.47;;;14.94;85.50
16120;BME280;12670;53.502;10.252;2024-03-02T10:37:14;100165.56;;;14.83;87.85
16120;BME280;12670;53.502;10.252;2024-03-02T10:40:21;100160.09;;;15.36;85.30
16120;BME280;12670;53.502;10.252;2024-03-02T10:43:24;100160.16;;;15.85;81.48
16120;BME280;12670;53.502;10.252;2024-03-02T10:46:28;100156.53;;;16.69;74.17
16120;BME280;12670;53.502;10.252;2024-03-02T10:49:33;100160.16;;;17.03;69.93
16120;BME280;12670;53.502;10.252;2024-03-02T10:52:36;100162.75;;;17.39;66.90
16120;BME280;12670;53.502;10.252;2024-03-02T10:55:39;100161.53;;;17.43;61.01
16120;BME280;12670;53.502;10.252;2024-03-02T10:58:42;100156.91;;;17.33;62.72
16120;BME280;12670;53.502;10.252;2024-03-02T11:01:46;100168.03;;;16.83;63.15
16120;BME280;12670;53.502;10.252;2024-03-02T11:04:54;100166.94;;;16.50;62.85
16120;BME280;12670;53.502;10.252;2024-03-02T11:08:00;100161.53;;;16.15;64.58
16120;BME280;12670;53.502;10.252;2024-03-02T11:11:07;100165.19;;;16.14;65.44
16120;BME280;12670;53.502;10.252;2024-03-02T11:14:17;100163.75;;;16.45;63.69
16120;BME280;12670;53.502;10.252;2024-03-02T11:17:23;100174.19;;;17.41;63.96
16120;BME280;12670;53.502;10.252;2024-03-02T11:20:29;100171.25;;;18.00;61.07
16120;BME280;12670;53.502;10.252;2024-03-02T11:23:32;100168.22;;;17.82;58.15
16120;BME280;12670;53.502;10.252;2024-03-02T11:26:38;100176.03;;;17.29;57.67
16120;BME280;12670;53.502;10.252;2024-03-02T11:29:45;100178.09;;;17.14;59.72
16120;BME280;12670;53.502;10.252;2024-03-02T11:32:55;100185.31;;;16.78;63.39
16120;BME280;12670;53.502;10.252;2024-03-02T11:36:00;100180.94;;;16.77;62.17
16120;BME280;12670;53.502;10.252;2024-03-02T11:39:04;100175.13;;;16.84;62.52
16120;BME280;12670;53.502;10.252;2024-03-02T11:42:07;100174.81;;;17.44;60.85
16120;BME280;12670;53.502;10.252;2024-03-02T11:45:11;100172.00;;;17.68;59.39
16120;BME280;12670;53.502;10.252;2024-03-02T11:48:14;100168.84;;;17.18;57.23
16120;BME280;12670;53.502;10.252;2024-03-02T11:51:19;100173.56;;;16.68;59.48
16120;BME280;12670;53.502;10.252;2024-03-02T11:54:22;100162.56;;;16.25;64.79
16120;BME280;12670;53.502;10.252;2024-03-02T11:57:24;100167.41;;;15.96;63.92
16120;BME280;12670;53.502;10.252;2024-03-02T12:00:29;100164.81;;;15.45;65.99
16120;BME280;12670;53.502;10.252;2024-03-02T12:03:32;100169.53;;;15.16;72.73
16120;BME280;12670;53.502;10.252;2024-03-02T12:06:37;100176.38;;;15.07;73.67
16120;BME280;12670;53.502;10.252;2024-03-02T12:09:40;100175.50;;;14.94;79.29
16120;BME280;12670;53.502;10.252;2024-03-02T12:12:43;100164.69;;;14.83;79.52
16120;BME280;12670;53.502;10.252;2024-03-02T12:15:45;100176.56;;;14.79;78.19
16120;BME280;12670;53.502;10.252;2024-03-02T12:18:48;100175.38;;;14.70;82.69
16120;BME280;12670;53.502;10.252;2024-03-02T12:21:52;100171.94;;;14.55;81.19
16120;BME280;12670;53.502;10.252;2024-03-02T12:24:55;100168.72;;;14.63;81.83
16120;BME280;12670;53.502;10.252;2024-03-02T12:28:00;100175.56;;;14.40;81.96
16120;BME280;12670;53.502;10.252;2024-03-02T12:31:04;100176.84;;;14.61;83.90
16120;BME280;12670;53.502;10.252;2024-03-02T12:34:08;100168.25;;;14.44;84.79
16120;BME280;12670;53.502;10.252;2024-03-02T12:37:13;100168.97;;;14.60;80.36
16120;BME280;12670;53.502;10.252;2024-03-02T12:40:17;100163.16;;;14.53;83.63
16120;BME280;12670;53.502;10.252;2024-03-02T12:43:20;100166.38;;;14.58;84.20
16120;BME280;12670;53.502;10.252;2024-03-02T12:46:22;100164.41;;;14.48;81.69
16120;BME280;12670;53.502;10.252;2024-03-02T12:49:25;100163.25;;;14.52;84.72
16120;BME280;12670;53.502;10.252;2024-03-02T12:52:31;100168.06;;;14.59;81.76
16120;BME280;12670;53.502;10.252;2024-03-02T12:55:35;100165.31;;;14.48;82.51
16120;BME280;12670;53.502;10.252;2024-03-02T12:58:39;100153.31;;;14.54;85.66
16120;BME280;12670;53.502;10.252;2024-03-02T13:01:50;100164.97;;;14.53;85.35
16120;BME280;12670;53.502;10.252;2024-03-02T13:04:53;100157.41;;;14.59;82.28
16120;BME280;12670;53.502;10.252;2024-03-02T13:07:58;100157.22;;;14.75;81.36
16120;BME280;12670;53.502;10.252;2024-03-02T13:11:01;100159.25;;;14.72;81.71
16120;BME280;12670;53.502;10.252;2024-03-02T13:14:04;100159.16;;;14.86;81.28
16120;BME280;12670;53.502;10.252;2024-03-02T13:17:08;100151.16;;;14.99;81.28
16120;BME280;12670;53.502;10.252;2024-03-02T13:20:11;100150.84;;;15.03;81.23
16120;BME280;12670;53.502;10.252;2024-03-02T13:23:16;100150.19;;;15.00;79.52
16120;BME280;12670;53.502;10.252;2024-03-02T13:26:19;100151.25;;;14.97;77.63
16120;BME280;12670;53.502;10.252;2024-03-02T13:29:22;100152.84;;;15.00;80.61
16120;BME280;12670;53.502;10.252;2024-03-02T13:32:25;100155.09;;;14.93;78.15
16120;BME280;12670;53.502;10.252;2024-03-02T13:35:28;100151.44;;;14.56;82.11
16120;BME280;12670;53.502;10.252;2024-03-02T13:38:32;100155.06;;;14.55;83.98
16120;BME280;12670;53.502;10.252;2024-03-02T13:41:35;100145.19;;;14.43;79.74
16120;BME280;12670;53.502;10.252;2024-03-02T13:44:37;100151.31;;;14.30;80.86
16120;BME280;12670;53.502;10.252;2024-03-02T13:47:40;100148.75;;;14.29;84.47
16120;BME280;12670;53.502;10.252;2024-03-02T13:50:43;100147.06;;;14.40;82.64
16120;BME280;12670;53.502;10.252;2024-03-02T13:53:48;100139.13;;;14.13;83.04
16120;BME280;12670;53.502;10.252;2024-03-02T13:56:51;100137.47;;;14.11;88.20
16120;BME280;12670;53.502;10.252;2024-03-02T13:59:54;100138.44;;;14.10;89.10
16120;BME280;12670;53.502;10.252;2024-03-02T14:02:57;100136.94;;;14.06;85.33
16120;BME280;12670;53.502;10.252;2024-03-02T14:05:59;100141.22;;;14.08;84.39
16120;BME280;12670;53.502;10.252;2024-03-02T14:09:03;100136.34;;;14.15;84.14
16120;BME280;12670;53.502;10.252;2024-03-02T14:12:07;100136.38;;;14.28;84.09
16120;BME280;12670;53.502;10.252;2024-03-02T14:15:09;100128.88;;;14.47;86.23
16120;BME280;12670;53.502;10.252;2024-03-02T14:18:12;100132.44;;;14.73;86.14
16120;BME280;12670;53.502;10.252;2024-03-02T14:21:15;100121.44;;;15.16;85.24
16120;BME280;12670;53.502;10.252;2024-03-02T14:24:19;100126.75;;;15.29;81.46
16120;BME280;12670;53.502;10.252;2024-03-02T14:27:25;100125.16;;;15.39;79.55
16120;BME280;12670;53.502;10.252;2024-03-02T14:30:48;100126.53;;;15.44;78.03
16120;BME280;12670;53.502;10.252;2024-03-02T14:33:52;100122.13;;;15.56;75.05
16120;BME280;12670;53.502;10.252;2024-03-02T14:36:55;100124.22;;;15.77;75.50
16120;BME280;12670;53.502;10.252;2024-03-02T14:40:00;100128.78;;;16.11;71.88
16120;BME280;12670;53.502;10.252;2024-03-02T14:43:03;100128.28;;;16.06;72.24
16120;BME280;12670;53.502;10.252;2024-03-02T14:46:06;100117.72;;;16.40;70.35
16120;BME280;12670;53.502;10.252;2024-03-02T14:49:10;100110.03;;;16.70;71.55
16120;BME280;12670;53.502;10.252;2024-03-02T14:52:13;100113.50;;;17.17;68.01
16120;BME280;12670;53.502;10.252;2024-03-02T14:55:17;100121.56;;;17.17;63.32
16120;BME280;12670;53.502;10.252;2024-03-02T14:58:20;100129.19;;;16.88;63.95
16120;BME280;12670;53.502;10.252;2024-03-02T15:01:22;100126.81;;;16.61;64.44
16120;BME280;12670;53.502;10.252;2024-03-02T15:04:26;100130.59;;;16.35;65.26
16120;BME280;12670;53.502;10.252;2024-03-02T15:07:29;100121.72;;;16.10;67.35
16120;BME280;12670;53.502;10.252;2024-03-02T15:10:33;100117.09;;;16.01;70.88
16120;BME280;12670;53.502;10.252;2024-03-02T15:13:36;100127.34;;;16.07;72.42
16120;BME280;12670;53.502;10.252;2024-03-02T15:16:39;100129.50;;;16.02;71.15
16120;BME280;12670;53.502;10.252;2024-03-02T15:19:43;100123.81;;;15.57;68.22
16120;BME280;12670;53.502;10.252;2024-03-02T15:22:46;100126.00;;;15.39;68.86
16120;BME280;12670;53.502;10.252;2024-03-02T15:25:50;100124.31;;;15.26;71.58
16120;BME280;12670;53.502;10.252;2024-03-02T15:28:53;100124.56;;;14.97;69.46
16120;BME280;12670;53.502;10.252;2024-03-02T15:31:57;100134.06;;;15.01;75.75
16120;BME280;12670;53.502;10.252;2024-03-02T15:35:00;100138.66;;;14.86;71.60
16120;BME280;12670;53.502;10.252;2024-03-02T15:38:03;100135.78;;;15.02;69.40
16120;BME280;12670;53.502;10.252;2024-03-02T15:41:13;100133.75;;;15.18;69.25
16120;BME280;12670;53.502;10.252;2024-03-02T15:44:16;100137.44;;;15.29;69.64
16120;BME280;12670;53.502;10.252;2024-03-02T15:47:19;100144.00;;;15.25;69.16
16120;BME280;12670;53.502;10.252;2024-03-02T15:50:22;100136.09;;;14.85;70.13